METAR AND TAF INFORMATION
METAR FOR LDZA
ADDS - METARS form results

(1511 UTC 13 July 2020)
Data provider http://aviationweather.gov/metar/data/
 
METAR text: LDZA 131500Z 03008KT 340V100 CAVOK 24/09 Q1019 NOSIG
Conditions at: LDZA (ZAGREB/PLESO , HR) observed 1500 UTC 13 July 2020
Temperature: 24.0°C (75°F)
Dewpoint: 9.0°C (48°F) [RH = 38%]
Pressure (altimeter): 30.09 inches Hg (1019.0 mb)
Winds: from the NNE (30 degrees) at 9 MPH (8 knots; 4.1 m/s)
Visibility: 6 or more miles (10+ km)
Ceiling: ceiling and visibility are OK
Clouds: unknown
Weather: no significant weather observed at this time

METAR text: LDZA 131430Z 05005KT 350V140 CAVOK 25/08 Q1020 NOSIG
Conditions at: LDZA (ZAGREB/PLESO , HR) observed 1430 UTC 13 July 2020
Temperature: 25.0°C (77°F)
Dewpoint: 8.0°C (46°F) [RH = 34%]
Pressure (altimeter): 30.12 inches Hg (1020.0 mb)
Winds: from the NE (50 degrees) at 6 MPH (5 knots; 2.6 m/s)
Visibility: 6 or more miles (10+ km)
Ceiling: ceiling and visibility are OK
Clouds: unknown
Weather: no significant weather observed at this time

Forecast for: LDZA (ZAGREB/PLESO , HR)
Text: TAF LDZA 131125Z 1312/1412 05007KT CAVOK TX25/1313Z TN11/1403Z
Forecast period: 1200 to 1400 UTC 13 July 2020
Forecast type: FROM: standard forecast or significant change
Winds: from the NE (50 degrees) at 8 MPH (7 knots; 3.6 m/s)
Visibility: 6 or more miles 10+ km)
Ceiling: unknown
Clouds: missing
Weather: no significant weather forecast for this period
Text: BECMG 1314/1316 VRB02KT
Forecast period: 1400 UTC 13 July 2020 to 1200 UTC 14 July 2020
Forecast type: BECOMING: Conditions expected to become as follows by 1600 UTC 13 July 2020
Winds: variable direction winds at 2 MPH (2 knots; 1.0 m/s)
Visibility: 6 or more miles 10+ km)
Ceiling: unknown
Clouds: missing
Weather: no significant weather forecast for this period

 AIRPORT MAP

 RUNWAY INFORMATION
Runway 05 Runway length 10669 ft Runway width 148 ft
Runway elevation 353 ft Runway displaced threshold 0 ft Runway heading 47
Runway 23 Runway length 10669 ft Runway width 148 ft
Runway elevation 348 ft Runway displaced threshold 0 ft Runway heading 227

 AIRPORT FREQUENCIES
Type APP Name APP Frequency 120.7 MHZ
Type ATIS Name ATIS Frequency 124.375 MHZ
Type GND Name GND Frequency 121.85 MHZ
Type INFO Name INFO Frequency 124.85 MHZ
Type RDR Name RADAR Frequency 120.7 MHZ
Type TWR Name TWR Frequency 118.3 MHZ

 AIRPORT NEAR NAVIGATION AIDS
Type DME Name Iza Frequency 109500 KHZ
Type NDB Name Pisarovina Frequency 424 KHZ
Type NDB Name S.kKaljevec Frequency 350 KHZ
Type NDB Name Velika Gorica Frequency 325 KHZ
Type VOR-DME Name Zagreb Frequency 113700 KHZ
Type NDB Name Zagreb Frequency 367 KHZ